sensor_id;sensor_type;location;lat;lon;timestamp;temperature;humidity
39925;DHT22;25592;49.986;11.618;2024-03-17T00:02:32;9.80;96.60
39925;DHT22;25592;49.986;11.618;2024-03-17T00:05:17;9.70;96.10
39925;DHT22;25592;49.986;11.618;2024-03-17T00:08:05;9.80;95.90
39925;DHT22;25592;49.986;11.618;2024-03-17T00:10:51;9.80;96.00
39925;DHT22;25592;49.986;11.618;2024-03-17T00:13:36;9.80;96.70
39925;DHT22;25592;49.986;11.618;2024-03-17T00:16:20;9.80;96.50
39925;DHT22;25592;49.986;11.618;2024-03-17T00:19:05;9.70;96.50
39925;DHT22;25592;49.986;11.618;2024-03-17T00:21:49;9.60;97.10
39925;DHT22;25592;49.986;11.618;2024-03-17T00:24:37;9.70;97.20
39925;DHT22;25592;49.986;11.618;2024-03-17T00:27:22;9.70;97.20
39925;DHT22;25592;49.986;11.618;2024-03-17T00:30:07;9.50;96.40
39925;DHT22;25592;49.986;11.618;2024-03-17T00:32:59;9.30;96.00
39925;DHT22;25592;49.986;11.618;2024-03-17T00:35:43;9.40;97.30
39925;DHT22;25592;49.986;11.618;2024-03-17T00:38:27;9.30;96.50
39925;DHT22;25592;49.986;11.618;2024-03-17T00:41:12;9.20;96.80
39925;DHT22;25592;49.986;11.618;2024-03-17T00:43:57;9.30;97.70
39925;DHT22;25592;49.986;11.618;2024-03-17T00:46:41;9.40;97.50
39925;DHT22;25592;49.986;11.618;2024-03-17T00:49:26;9.40;96.90
39925;DHT22;25592;49.986;11.618;2024-03-17T00:52:11;9.40;96.40
39925;DHT22;25592;49.986;11.618;2024-03-17T00:54:55;9.30;96.60
39925;DHT22;25592;49.986;11.618;2024-03-17T00:57:41;9.30;97.00
39925;DHT22;25592;49.986;11.618;2024-03-17T01:00:25;9.20;96.60
39925;DHT22;25592;49.986;11.618;2024-03-17T01:03:10;9.20;96.80
39925;DHT22;25592;49.986;11.618;2024-03-17T01:05:55;9.30;97.00
39925;DHT22;25592;49.986;11.618;2024-03-17T01:08:39;9.20;97.00
39925;DHT22;25592;49.986;11.618;2024-03-17T01:11:24;9.20;97.20
39925;DHT22;25592;49.986;11.618;2024-03-17T01:14:09;9.10;96.80
39925;DHT22;25592;49.986;11.618;2024-03-17T01:16:55;9.10;97.00
39925;DHT22;25592;49.986;11.618;2024-03-17T01:19:39;9.10;97.20
39925;DHT22;25592;49.986;11.618;2024-03-17T01:22:24;9.00;97.10
39925;DHT22;25592;49.986;11.618;2024-03-17T01:25:09;9.00;97.60
39925;DHT22;25592;49.986;11.618;2024-03-17T01:27:53;9.00;97.10
39925;DHT22;25592;49.986;11.618;2024-03-17T01:30:38;8.80;96.80
39925;DHT22;25592;49.986;11.618;2024-03-17T01:33:24;8.80;97.20
39925;DHT22;25592;49.986;11.618;2024-03-17T01:36:08;8.80;97.60
39925;DHT22;25592;49.986;11.618;2024-03-17T01:38:53;8.90;98.00
39925;DHT22;25592;49.986;11.618;2024-03-17T01:41:38;8.90;96.40
39925;DHT22;25592;49.986;11.618;2024-03-17T01:44:29;8.80;96.70
39925;DHT22;25592;49.986;11.618;2024-03-17T01:47:15;8.80;96.90
39925;DHT22;25592;49.986;11.618;2024-03-17T01:52:46;8.50;96.50
39925;DHT22;25592;49.986;11.618;2024-03-17T01:55:33;8.50;96.90
39925;DHT22;25592;49.986;11.618;2024-03-17T01:58:20;8.60;97.20
39925;DHT22;25592;49.986;11.618;2024-03-17T02:01:05;8.60;97.00
39925;DHT22;25592;49.986;11.618;2024-03-17T02:03:50;8.60;96.90
39925;DHT22;25592;49.986;11.618;2024-03-17T02:06:35;8.60;97.00
39925;DHT22;25592;49.986;11.618;2024-03-17T02:09:20;8.60;97.30
39925;DHT22;25592;49.986;11.618;2024-03-17T02:12:06;8.70;97.50
39925;DHT22;25592;49.986;11.618;2024-03-17T02:14:50;8.70;97.50
39925;DHT22;25592;49.986;11.618;2024-03-17T02:17:35;8.80;97.30
39925;DHT22;25592;49.986;11.618;2024-03-17T02:20:20;8.80;97.00
39925;DHT22;25592;49.986;11.618;2024-03-17T02:23:09;8.70;97.30
39925;DHT22;25592;49.986;11.618;2024-03-17T02:25:53;8.70;97.30
39925;DHT22;25592;49.986;11.618;2024-03-17T02:28:42;8.70;97.30
39925;DHT22;25592;49.986;11.618;2024-03-17T02:31:27;8.60;97.00
39925;DHT22;25592;49.986;11.618;2024-03-17T02:34:12;8.60;96.90
39925;DHT22;25592;49.986;11.618;2024-03-17T02:36:56;8.60;97.00
39925;DHT22;25592;49.986;11.618;2024-03-17T02:39:41;8.50;97.00
39925;DHT22;25592;49.986;11.618;2024-03-17T02:42:25;8.50;96.80
39925;DHT22;25592;49.986;11.618;2024-03-17T02:45:11;8.40;97.10
39925;DHT22;25592;49.986;11.618;2024-03-17T02:47:58;8.40;97.50
39925;DHT22;25592;49.986;11.618;2024-03-17T02:50:43;8.50;97.60
39925;DHT22;25592;49.986;11.618;2024-03-17T02:53:28;8.40;97.30
39925;DHT22;25592;49.986;11.618;2024-03-17T02:56:15;8.40;97.50
39925;DHT22;25592;49.986;11.618;2024-03-17T02:59:01;8.40;97.60
39925;DHT22;25592;49.986;11.618;2024-03-17T03:01:46;8.50;97.80
39925;DHT22;25592;49.986;11.618;2024-03-17T03:04:30;8.50;97.80
39925;DHT22;25592;49.986;11.618;2024-03-17T03:07:15;8.50;97.80
39925;DHT22;25592;49.986;11.618;2024-03-17T03:10:00;8.50;97.50
39925;DHT22;25592;49.986;11.618;2024-03-17T03:12:45;8.50;97.90
39925;DHT22;25592;49.986;11.618;2024-03-17T03:15:31;8.50;97.80
39925;DHT22;25592;49.986;11.618;2024-03-17T03:18:17;8.50;97.90
39925;DHT22;25592;49.986;11.618;2024-03-17T03:21:03;8.50;97.80
39925;DHT22;25592;49.986;11.618;2024-03-17T03:23:48;8.40;97.60
39925;DHT22;25592;49.986;11.618;2024-03-17T03:26:32;8.50;97.80
39925;DHT22;25592;49.986;11.618;2024-03-17T03:29:17;8.50;97.70
39925;DHT22;25592;49.986;11.618;2024-03-17T03:32:02;8.40;97.70
39925;DHT22;25592;49.986;11.618;2024-03-17T03:34:46;8.50;98.00
39925;DHT22;25592;49.986;11.618;2024-03-17T03:37:32;8.50;98.00
39925;DHT22;25592;49.986;11.618;2024-03-17T03:40:16;8.40;98.00
39925;DHT22;25592;49.986;11.618;2024-03-17T03:43:04;8.50;98.10
39925;DHT22;25592;49.986;11.618;2024-03-17T03:45:48;8.50;98.20
39925;DHT22;25592;49.986;11.618;2024-03-17T03:48:33;8.50;98.10
39925;DHT22;25592;49.986;11.618;2024-03-17T03:51:21;8.40;98.10
39925;DHT22;25592;49.986;11.618;2024-03-17T03:54:05;8.40;98.10
39925;DHT22;25592;49.986;11.618;2024-03-17T03:56:51;8.50;98.10
39925;DHT22;25592;49.986;11.618;2024-03-17T03:59:35;8.40;97.80
39925;DHT22;25592;49.986;11.618;2024-03-17T04:02:20;8.30;98.30
39925;DHT22;25592;49.986;11.618;2024-03-17T04:10:34;8.30;97.90
39925;DHT22;25592;49.986;11.618;2024-03-17T04:13:20;8.30;98.60
39925;DHT22;25592;49.986;11.618;2024-03-17T04:16:05;8.20;98.30
39925;DHT22;25592;49.986;11.618;2024-03-17T04:18:50;8.30;98.40
39925;DHT22;25592;49.986;11.618;2024-03-17T04:21:35;8.30;98.30
39925;DHT22;25592;49.986;11.618;2024-03-17T04:24:20;8.20;98.40
39925;DHT22;25592;49.986;11.618;2024-03-17T04:27:05;8.20;98.30
39925;DHT22;25592;49.986;11.618;2024-03-17T04:29:52;8.30;98.60
39925;DHT22;25592;49.986;11.618;2024-03-17T04:32:36;8.30;98.50
39925;DHT22;25592;49.986;11.618;2024-03-17T04:35:21;8.20;98.30
39925;DHT22;25592;49.986;11.618;2024-03-17T04:38:06;8.30;98.70
39925;DHT22;25592;49.986;11.618;2024-03-17T04:40:52;8.30;98.60
39925;DHT22;25592;49.986;11.618;2024-03-17T04:43:43;8.30;98.50
39925;DHT22;25592;49.986;11.618;2024-03-17T04:46:28;8.20;98.40
39925;DHT22;25592;49.986;11.618;2024-03-17T04:49:12;8.20;98.30
39925;DHT22;25592;49.986;11.618;2024-03-17T04:51:57;8.20;98.60
39925;DHT22;25592;49.986;11.618;2024-03-17T04:54:42;8.20;98.80
39925;DHT22;25592;49.986;11.618;2024-03-17T04:57:27;8.20;98.40
39925;DHT22;25592;49.986;11.618;2024-03-17T05:05:43;8.10;98.20
39925;DHT22;25592;49.986;11.618;2024-03-17T05:08:28;8.00;98.60
39925;DHT22;25592;49.986;11.618;2024-03-17T05:11:13;7.90;98.30
39925;DHT22;25592;49.986;11.618;2024-03-17T05:14:00;8.00;98.60
39925;DHT22;25592;49.986;11.618;2024-03-17T05:16:45;8.00;98.50
39925;DHT22;25592;49.986;11.618;2024-03-17T05:19:31;8.00;98.30
39925;DHT22;25592;49.986;11.618;2024-03-17T05:22:16;7.80;97.70
39925;DHT22;25592;49.986;11.618;2024-03-17T05:25:01;7.80;98.20
39925;DHT22;25592;49.986;11.618;2024-03-17T05:36:06;7.60;97.20
39925;DHT22;25592;49.986;11.618;2024-03-17T05:38:50;7.60;98.20
39925;DHT22;25592;49.986;11.618;2024-03-17T05:41:35;7.40;97.90
39925;DHT22;25592;49.986;11.618;2024-03-17T05:44:20;7.40;98.50
39925;DHT22;25592;49.986;11.618;2024-03-17T05:47:05;7.40;98.50
39925;DHT22;25592;49.986;11.618;2024-03-17T05:49:52;7.50;98.50
39925;DHT22;25592;49.986;11.618;2024-03-17T05:52:37;7.50;98.30
39925;DHT22;25592;49.986;11.618;2024-03-17T05:55:22;7.60;98.50
39925;DHT22;25592;49.986;11.618;2024-03-17T05:58:06;7.70;98.50
39925;DHT22;25592;49.986;11.618;2024-03-17T06:00:52;7.70;98.40
39925;DHT22;25592;49.986;11.618;2024-03-17T06:03:37;7.60;98.60
39925;DHT22;25592;49.986;11.618;2024-03-17T06:06:22;7.60;98.70
39925;DHT22;25592;49.986;11.618;2024-03-17T06:09:07;7.60;98.90
39925;DHT22;25592;49.986;11.618;2024-03-17T06:11:53;7.60;98.90
39925;DHT22;25592;49.986;11.618;2024-03-17T06:14:38;7.70;99.00
39925;DHT22;25592;49.986;11.618;2024-03-17T06:17:22;7.70;99.00
39925;DHT22;25592;49.986;11.618;2024-03-17T06:20:07;7.80;99.20
39925;DHT22;25592;49.986;11.618;2024-03-17T06:22:55;7.80;99.10
39925;DHT22;25592;49.986;11.618;2024-03-17T06:25:47;7.80;99.00
39925;DHT22;25592;49.986;11.618;2024-03-17T06:28:32;7.80;99.20
39925;DHT22;25592;49.986;11.618;2024-03-17T06:31:16;7.80;99.10
39925;DHT22;25592;49.986;11.618;2024-03-17T06:34:01;7.80;98.90
39925;DHT22;25592;49.986;11.618;2024-03-17T06:36:47;7.80;98.90
39925;DHT22;25592;49.986;11.618;2024-03-17T06:39:32;7.90;99.00
39925;DHT22;25592;49.986;11.618;2024-03-17T06:42:17;7.80;98.60
39925;DHT22;25592;49.986;11.618;2024-03-17T06:45:02;7.70;98.80
39925;DHT22;25592;49.986;11.618;2024-03-17T06:47:47;7.80;98.90
39925;DHT22;25592;49.986;11.618;2024-03-17T06:50:32;7.80;98.90
39925;DHT22;25592;49.986;11.618;2024-03-17T06:53:16;7.90;98.80
39925;DHT22;25592;49.986;11.618;2024-03-17T06:56:02;7.90;98.80
39925;DHT22;25592;49.986;11.618;2024-03-17T06:58:47;7.90;98.80
39925;DHT22;25592;49.986;11.618;2024-03-17T07:01:32;7.90;98.90
39925;DHT22;25592;49.986;11.618;2024-03-17T07:04:18;7.90;98.90
39925;DHT22;25592;49.986;11.618;2024-03-17T07:07:02;8.00;98.90
39925;DHT22;25592;49.986;11.618;2024-03-17T07:09:47;8.00;98.90
39925;DHT22;25592;49.986;11.618;2024-03-17T07:12:32;8.10;98.90
39925;DHT22;25592;49.986;11.618;2024-03-17T07:15:16;8.20;99.00
39925;DHT22;25592;49.986;11.618;2024-03-17T07:18:01;8.20;99.10
39925;DHT22;25592;49.986;11.618;2024-03-17T07:20:45;8.20;99.20
39925;DHT22;25592;49.986;11.618;2024-03-17T07:23:32;8.20;99.20
39925;DHT22;25592;49.986;11.618;2024-03-17T07:26:17;8.00;99.20
39925;DHT22;25592;49.986;11.618;2024-03-17T07:29:02;8.10;99.30
39925;DHT22;25592;49.986;11.618;2024-03-17T07:31:47;8.10;99.30
39925;DHT22;25592;49.986;11.618;2024-03-17T07:34:32;8.20;99.30
39925;DHT22;25592;49.986;11.618;2024-03-17T07:37:17;8.10;99.30
39925;DHT22;25592;49.986;11.618;2024-03-17T07:40:04;8.10;99.40
39925;DHT22;25592;49.986;11.618;2024-03-17T07:42:51;8.10;99.50
39925;DHT22;25592;49.986;11.618;2024-03-17T07:45:35;8.20;99.50
39925;DHT22;25592;49.986;11.618;2024-03-17T07:48:20;8.30;99.40
39925;DHT22;25592;49.986;11.618;2024-03-17T07:51:09;8.40;99.30
39925;DHT22;25592;49.986;11.618;2024-03-17T07:53:54;8.50;99.20
39925;DHT22;25592;49.986;11.618;2024-03-17T07:56:39;8.50;99.10
39925;DHT22;25592;49.986;11.618;2024-03-17T07:59:23;8.60;99.30
39925;DHT22;25592;49.986;11.618;2024-03-17T08:02:08;8.70;99.40
39925;DHT22;25592;49.986;11.618;2024-03-17T08:04:53;8.60;99.10
39925;DHT22;25592;49.986;11.618;2024-03-17T08:07:37;8.50;99.20
39925;DHT22;25592;49.986;11.618;2024-03-17T08:10:22;8.70;99.30
39925;DHT22;25592;49.986;11.618;2024-03-17T08:13:07;8.80;99.20
39925;DHT22;25592;49.986;11.618;2024-03-17T08:15:58;8.90;98.80
39925;DHT22;25592;49.986;11.618;2024-03-17T08:18:43;8.90;98.30
39925;DHT22;25592;49.986;11.618;2024-03-17T08:21:27;8.90;98.50
39925;DHT22;25592;49.986;11.618;2024-03-17T08:24:14;9.00;98.30
39925;DHT22;25592;49.986;11.618;2024-03-17T08:26:58;9.10;98.10
39925;DHT22;25592;49.986;11.618;2024-03-17T08:29:43;9.30;98.40
39925;DHT22;25592;49.986;11.618;2024-03-17T08:32:27;9.40;97.70
39925;DHT22;25592;49.986;11.618;2024-03-17T08:35:12;9.50;98.00
39925;DHT22;25592;49.986;11.618;2024-03-17T08:37:57;9.50;98.00
39925;DHT22;25592;49.986;11.618;2024-03-17T08:40:42;9.60;97.40
39925;DHT22;25592;49.986;11.618;2024-03-17T08:43:29;9.70;97.00
39925;DHT22;25592;49.986;11.618;2024-03-17T08:46:14;9.80;97.30
39925;DHT22;25592;49.986;11.618;2024-03-17T08:48:58;10.00;97.00
39925;DHT22;25592;49.986;11.618;2024-03-17T08:51:42;10.10;96.90
39925;DHT22;25592;49.986;11.618;2024-03-17T08:54:27;10.20;96.60
39925;DHT22;25592;49.986;11.618;2024-03-17T08:57:12;10.40;96.40
39925;DHT22;25592;49.986;11.618;2024-03-17T08:59:56;10.50;96.20
39925;DHT22;25592;49.986;11.618;2024-03-17T09:02:41;10.50;95.70
39925;DHT22;25592;49.986;11.618;2024-03-17T09:05:26;10.30;95.10
39925;DHT22;25592;49.986;11.618;2024-03-17T09:11:02;10.40;95.80
39925;DHT22;25592;49.986;11.618;2024-03-17T09:13:47;10.50;96.00
39925;DHT22;25592;49.986;11.618;2024-03-17T09:16:31;10.70;94.70
39925;DHT22;25592;49.986;11.618;2024-03-17T09:19:16;10.80;94.60
39925;DHT22;25592;49.986;11.618;2024-03-17T09:22:01;10.90;94.20
39925;DHT22;25592;49.986;11.618;2024-03-17T09:24:45;10.90;93.70
39925;DHT22;25592;49.986;11.618;2024-03-17T09:27:31;11.00;93.90
39925;DHT22;25592;49.986;11.618;2024-03-17T09:30:15;10.80;92.90
39925;DHT22;25592;49.986;11.618;2024-03-17T09:33:00;10.90;93.50
39925;DHT22;25592;49.986;11.618;2024-03-17T09:36:10;11.10;93.00
39925;DHT22;25592;49.986;11.618;2024-03-17T09:38:58;11.20;92.60
39925;DHT22;25592;49.986;11.618;2024-03-17T09:41:46;11.20;92.90
39925;DHT22;25592;49.986;11.618;2024-03-17T09:44:32;11.30;93.00
39925;DHT22;25592;49.986;11.618;2024-03-17T09:47:19;11.70;93.30
39925;DHT22;25592;49.986;11.618;2024-03-17T09:50:13;12.20;92.80
39925;DHT22;25592;49.986;11.618;2024-03-17T09:52:59;12.30;92.10
39925;DHT22;25592;49.986;11.618;2024-03-17T09:55:44;12.20;90.90
39925;DHT22;25592;49.986;11.618;2024-03-17T09:58:28;12.40;91.40
39925;DHT22;25592;49.986;11.618;2024-03-17T10:01:13;12.40;91.80
39925;DHT22;25592;49.986;11.618;2024-03-17T10:03:58;12.60;91.30
39925;DHT22;25592;49.986;11.618;2024-03-17T10:06:46;12.70;91.20
39925;DHT22;25592;49.986;11.618;2024-03-17T10:09:35;12.70;91.00
39925;DHT22;25592;49.986;11.618;2024-03-17T10:12:27;12.80;91.10
39925;DHT22;25592;49.986;11.618;2024-03-17T10:15:12;13.10;91.00
39925;DHT22;25592;49.986;11.618;2024-03-17T10:17:57;13.20;91.10
39925;DHT22;25592;49.986;11.618;2024-03-17T10:20:42;13.20;90.20
39925;DHT22;25592;49.986;11.618;2024-03-17T10:23:26;12.80;90.30
39925;DHT22;25592;49.986;11.618;2024-03-17T10:26:13;12.50;90.80
39925;DHT22;25592;49.986;11.618;2024-03-17T10:28:59;12.60;90.70
39925;DHT22;25592;49.986;11.618;2024-03-17T10:31:44;12.80;91.20
39925;DHT22;25592;49.986;11.618;2024-03-17T10:34:30;13.30;92.30
39925;DHT22;25592;49.986;11.618;2024-03-17T10:37:21;13.70;91.70
39925;DHT22;25592;49.986;11.618;2024-03-17T10:40:12;13.80;91.50
39925;DHT22;25592;49.986;11.618;2024-03-17T10:42:58;13.70;91.50
39925;DHT22;25592;49.986;11.618;2024-03-17T10:45:43;13.80;90.60
39925;DHT22;25592;49.986;11.618;2024-03-17T10:48:31;13.30;91.60
39925;DHT22;25592;49.986;11.618;2024-03-17T10:51:17;13.20;91.70
39925;DHT22;25592;49.986;11.618;2024-03-17T10:54:03;13.00;92.00
39925;DHT22;25592;49.986;11.618;2024-03-17T10:56:47;12.90;92.10
39925;DHT22;25592;49.986;11.618;2024-03-17T10:59:39;13.20;91.90
39925;DHT22;25592;49.986;11.618;2024-03-17T11:02:27;13.40;90.90
39925;DHT22;25592;49.986;11.618;2024-03-17T11:05:22;13.50;90.00
39925;DHT22;25592;49.986;11.618;2024-03-17T11:08:15;13.70;90.10
39925;DHT22;25592;49.986;11.618;2024-03-17T11:11:00;13.90;89.50
39925;DHT22;25592;49.986;11.618;2024-03-17T11:13:46;14.10;90.40
39925;DHT22;25592;49.986;11.618;2024-03-17T11:16:30;14.30;88.00
39925;DHT22;25592;49.986;11.618;2024-03-17T11:19:16;14.60;89.10
39925;DHT22;25592;49.986;11.618;2024-03-17T11:31:39;15.40;88.80
39925;DHT22;25592;49.986;11.618;2024-03-17T11:37:41;15.50;88.90
39925;DHT22;25592;49.986;11.618;2024-03-17T11:40:26;15.80;88.10
39925;DHT22;25592;49.986;11.618;2024-03-17T11:43:16;16.00;87.50
39925;DHT22;25592;49.986;11.618;2024-03-17T11:46:01;16.10;87.20
39925;DHT22;25592;49.986;11.618;2024-03-17T11:48:46;16.30;90.50
39925;DHT22;25592;49.986;11.618;2024-03-17T11:51:34;16.60;87.50
39925;DHT22;25592;49.986;11.618;2024-03-17T11:54:26;16.70;87.50
39925;DHT22;25592;49.986;11.618;2024-03-17T11:57:26;16.70;84.20
39925;DHT22;25592;49.986;11.618;2024-03-17T12:00:22;16.40;85.00
39925;DHT22;25592;49.986;11.618;2024-03-17T12:03:10;16.40;85.50
39925;DHT22;25592;49.986;11.618;2024-03-17T12:05:55;16.50;84.60
39925;DHT22;25592;49.986;11.618;2024-03-17T12:08:39;16.50;83.70
39925;DHT22;25592;49.986;11.618;2024-03-17T12:11:24;16.60;86.30
39925;DHT22;25592;49.986;11.618;2024-03-17T12:14:15;16.80;84.30
39925;DHT22;25592;49.986;11.618;2024-03-17T12:17:05;16.90;82.50
39925;DHT22;25592;49.986;11.618;2024-03-17T12:19:51;16.40;82.70
39925;DHT22;25592;49.986;11.618;2024-03-17T12:22:36;16.50;83.60
39925;DHT22;25592;49.986;11.618;2024-03-17T12:25:21;16.50;82.80
39925;DHT22;25592;49.986;11.618;2024-03-17T12:28:15;16.50;81.80
39925;DHT22;25592;49.986;11.618;2024-03-17T12:31:00;16.10;82.40
39925;DHT22;25592;49.986;11.618;2024-03-17T12:33:45;16.40;82.10
39925;DHT22;25592;49.986;11.618;2024-03-17T12:36:29;16.50;82.90
39925;DHT22;25592;49.986;11.618;2024-03-17T12:42:12;16.90;82.10
39925;DHT22;25592;49.986;11.618;2024-03-17T12:45:01;16.80;83.00
39925;DHT22;25592;49.986;11.618;2024-03-17T12:47:48;17.00;82.80
39925;DHT22;25592;49.986;11.618;2024-03-17T12:50:34;17.20;79.70
39925;DHT22;25592;49.986;11.618;2024-03-17T12:53:18;16.80;80.10
39925;DHT22;25592;49.986;11.618;2024-03-17T12:56:06;16.70;79.40
39925;DHT22;25592;49.986;11.618;2024-03-17T12:59:09;16.70;81.10
39925;DHT22;25592;49.986;11.618;2024-03-17T13:02:13;16.70;80.50
39925;DHT22;25592;49.986;11.618;2024-03-17T13:05:18;16.90;82.20
39925;DHT22;25592;49.986;11.618;2024-03-17T13:08:04;17.00;82.70
39925;DHT22;25592;49.986;11.618;2024-03-17T13:10:49;17.00;82.50
39925;DHT22;25592;49.986;11.618;2024-03-17T13:13:35;17.10;82.30
39925;DHT22;25592;49.986;11.618;2024-03-17T13:16:19;17.30;82.30
39925;DHT22;25592;49.986;11.618;2024-03-17T13:19:04;17.30;81.30
39925;DHT22;25592;49.986;11.618;2024-03-17T13:21:48;17.30;80.60
39925;DHT22;25592;49.986;11.618;2024-03-17T13:24:33;17.70;81.30
39925;DHT22;25592;49.986;11.618;2024-03-17T13:27:17;17.50;79.10
39925;DHT22;25592;49.986;11.618;2024-03-17T13:30:02;17.60;79.80
39925;DHT22;25592;49.986;11.618;2024-03-17T13:32:47;17.70;80.20
39925;DHT22;25592;49.986;11.618;2024-03-17T13:35:32;17.30;79.80
39925;DHT22;25592;49.986;11.618;2024-03-17T13:38:16;17.60;79.80
39925;DHT22;25592;49.986;11.618;2024-03-17T13:41:01;17.50;78.90
39925;DHT22;25592;49.986;11.618;2024-03-17T13:43:49;17.60;79.20
39925;DHT22;25592;49.986;11.618;2024-03-17T13:46:33;17.60;78.40
39925;DHT22;25592;49.986;11.618;2024-03-17T13:49:18;17.80;79.10
39925;DHT22;25592;49.986;11.618;2024-03-17T13:52:03;18.00;78.40
39925;DHT22;25592;49.986;11.618;2024-03-17T13:54:48;18.40;78.90
39925;DHT22;25592;49.986;11.618;2024-03-17T13:57:33;18.20;77.80
39925;DHT22;25592;49.986;11.618;2024-03-17T14:00:18;18.40;78.90
39925;DHT22;25592;49.986;11.618;2024-03-17T14:03:05;18.50;78.50
39925;DHT22;25592;49.986;11.618;2024-03-17T14:05:49;18.50;78.20
39925;DHT22;25592;49.986;11.618;2024-03-17T14:08:34;18.40;79.10
39925;DHT22;25592;49.986;11.618;2024-03-17T14:11:19;18.50;78.90
39925;DHT22;25592;49.986;11.618;2024-03-17T14:14:04;18.50;78.90
39925;DHT22;25592;49.986;11.618;2024-03-17T14:16:49;18.50;79.10
39925;DHT22;25592;49.986;11.618;2024-03-17T14:19:34;18.60;78.60
39925;DHT22;25592;49.986;11.618;2024-03-17T14:22:18;18.50;77.60
39925;DHT22;25592;49.986;11.618;2024-03-17T14:25:06;18.30;77.50
39925;DHT22;25592;49.986;11.618;2024-03-17T14:27:51;17.70;76.80
39925;DHT22;25592;49.986;11.618;2024-03-17T14:30:36;17.60;77.70
39925;DHT22;25592;49.986;11.618;2024-03-17T14:33:20;17.80;78.80
39925;DHT22;25592;49.986;11.618;2024-03-17T14:36:05;17.90;77.40
39925;DHT22;25592;49.986;11.618;2024-03-17T14:38:50;18.00;78.90
39925;DHT22;25592;49.986;11.618;2024-03-17T14:41:35;18.10;78.50
39925;DHT22;25592;49.986;11.618;2024-03-17T14:44:19;18.10;79.20
39925;DHT22;25592;49.986;11.618;2024-03-17T14:47:04;18.00;78.90
39925;DHT22;25592;49.986;11.618;2024-03-17T14:49:49;17.90;79.30
39925;DHT22;25592;49.986;11.618;2024-03-17T14:52:35;17.80;79.00
39925;DHT22;25592;49.986;11.618;2024-03-17T14:55:20;17.60;77.20
39925;DHT22;25592;49.986;11.618;2024-03-17T14:58:05;17.50;78.70
39925;DHT22;25592;49.986;11.618;2024-03-17T15:00:50;17.20;78.40
39925;DHT22;25592;49.986;11.618;2024-03-17T15:03:35;17.40;78.80
39925;DHT22;25592;49.986;11.618;2024-03-17T15:06:20;17.60;78.80
39925;DHT22;25592;49.986;11.618;2024-03-17T15:09:05;17.60;79.10
39925;DHT22;25592;49.986;11.618;2024-03-17T15:11:49;17.60;79.00
39925;DHT22;25592;49.986;11.618;2024-03-17T15:14:34;17.20;77.90
39925;DHT22;25592;49.986;11.618;2024-03-17T15:17:19;17.10;79.10
39925;DHT22;25592;49.986;11.618;2024-03-17T15:20:04;17.10;79.80
39925;DHT22;25592;49.986;11.618;2024-03-17T15:23:01;17.10;79.20
39925;DHT22;25592;49.986;11.618;2024-03-17T15:25:45;16.90;80.00
39925;DHT22;25592;49.986;11.618;2024-03-17T15:28:30;16.80;80.10
39925;DHT22;25592;49.986;11.618;2024-03-17T15:31:14;16.90;79.80
39925;DHT22;25592;49.986;11.618;2024-03-17T15:33:59;16.80;79.80
39925;DHT22;25592;49.986;11.618;2024-03-17T15:36:44;16.70;79.20
39925;DHT22;25592;49.986;11.618;2024-03-17T15:39:28;16.60;80.40
39925;DHT22;25592;49.986;11.618;2024-03-17T15:42:13;16.40;80.10
39925;DHT22;25592;49.986;11.618;2024-03-17T15:44:58;16.40;80.60
39925;DHT22;25592;49.986;11.618;2024-03-17T15:47:43;16.20;79.70
39925;DHT22;25592;49.986;11.618;2024-03-17T15:50:29;16.10;80.40
39925;DHT22;25592;49.986;11.618;2024-03-17T15:53:15;16.10;81.20
39925;DHT22;25592;49.986;11.618;2024-03-17T15:56:01;15.90;80.40
39925;DHT22;25592;49.986;11.618;2024-03-17T15:58:46;15.80;81.30
39925;DHT22;25592;49.986;11.618;2024-03-17T16:01:31;15.80;81.30
39925;DHT22;25592;49.986;11.618;2024-03-17T16:04:15;15.80;81.10
39925;DHT22;25592;49.986;11.618;2024-03-17T16:07:00;15.80;81.70
39925;DHT22;25592;49.986;11.618;2024-03-17T16:09:46;15.70;81.50
39925;DHT22;25592;49.986;11.618;2024-03-17T16:12:32;15.60;82.30
39925;DHT22;25592;49.986;11.618;2024-03-17T16:15:18;15.60;82.60
39925;DHT22;25592;49.986;11.618;2024-03-17T16:18:04;15.60;83.40
39925;DHT22;25592;49.986;11.618;2024-03-17T16:23:37;15.50;84.80
39925;DHT22;25592;49.986;11.618;2024-03-17T16:26:22;15.50;84.90
39925;DHT22;25592;49.986;11.618;2024-03-17T16:29:11;15.40;84.70
39925;DHT22;25592;49.986;11.618;2024-03-17T16:31:59;15.40;85.00
39925;DHT22;25592;49.986;11.618;2024-03-17T16:34:43;15.20;84.90
39925;DHT22;25592;49.986;11.618;2024-03-17T16:37:28;15.10;85.20
39925;DHT22;25592;49.986;11.618;2024-03-17T16:40:13;15.00;85.30
39925;DHT22;25592;49.986;11.618;2024-03-17T16:43:00;15.00;85.20
39925;DHT22;25592;49.986;11.618;2024-03-17T16:48:55;14.70;86.40
39925;DHT22;25592;49.986;11.618;2024-03-17T16:51:40;14.60;86.50
39925;DHT22;25592;49.986;11.618;2024-03-17T16:54:25;14.60;86.20
39925;DHT22;25592;49.986;11.618;2024-03-17T16:57:10;14.50;86.60
39925;DHT22;25592;49.986;11.618;2024-03-17T16:59:57;14.50;86.90
39925;DHT22;25592;49.986;11.618;2024-03-17T17:02:43;14.40;87.00
39925;DHT22;25592;49.986;11.618;2024-03-17T17:05:31;14.40;86.60
39925;DHT22;25592;49.986;11.618;2024-03-17T17:08:16;14.30;86.80
39925;DHT22;25592;49.986;11.618;2024-03-17T17:11:01;14.20;87.30
39925;DHT22;25592;49.986;11.618;2024-03-17T17:13:47;14.10;87.30
39925;DHT22;25592;49.986;11.618;2024-03-17T17:16:31;14.10;86.80
39925;DHT22;25592;49.986;11.618;2024-03-17T17:19:16;13.90;87.10
39925;DHT22;25592;49.986;11.618;2024-03-17T17:22:01;13.90;87.20
39925;DHT22;25592;49.986;11.618;2024-03-17T17:24:45;13.70;86.40
39925;DHT22;25592;49.986;11.618;2024-03-17T17:27:30;13.60;87.80
39925;DHT22;25592;49.986;11.618;2024-03-17T17:30:17;13.60;86.70
39925;DHT22;25592;49.986;11.618;2024-03-17T17:33:02;13.50;87.40
39925;DHT22;25592;49.986;11.618;2024-03-17T17:35:47;13.40;87.30
39925;DHT22;25592;49.986;11.618;2024-03-17T17:38:31;13.40;88.80
39925;DHT22;25592;49.986;11.618;2024-03-17T17:41:17;13.40;87.30
39925;DHT22;25592;49.986;11.618;2024-03-17T17:44:01;13.30;87.20
39925;DHT22;25592;49.986;11.618;2024-03-17T17:46:47;13.20;87.50
39925;DHT22;25592;49.986;11.618;2024-03-17T17:49:32;13.10;88.00
39925;DHT22;25592;49.986;11.618;2024-03-17T17:52:16;13.00;88.20
39925;DHT22;25592;49.986;11.618;2024-03-17T17:55:01;12.90;88.30
39925;DHT22;25592;49.986;11.618;2024-03-17T17:57:47;12.80;89.00
39925;DHT22;25592;49.986;11.618;2024-03-17T18:00:32;12.70;89.10
39925;DHT22;25592;49.986;11.618;2024-03-17T18:03:16;12.70;89.70
39925;DHT22;25592;49.986;11.618;2024-03-17T18:06:01;12.60;89.50